createdAt,value
2018-03-12T00:00:53.874Z,91.79
2018-03-12T00:01:54.021Z,92.84
2018-03-12T00:02:54.171Z,92.84
2018-03-12T00:03:54.339Z,92.55
2018-03-12T00:04:54.479Z,92.18
2018-03-12T00:05:54.635Z,92.84
2018-03-12T00:06:54.791Z,91.94
2018-03-12T00:07:54.942Z,92.51
2018-03-12T00:08:55.089Z,92.84
2018-03-12T00:09:55.247Z,92.84
2018-03-12T00:10:55.392Z,92.94
2018-03-12T00:11:55.549Z,92.94
2018-03-12T00:12:55.707Z,92.84
2018-03-12T00:13:55.857Z,92.94
2018-03-12T00:14:56.012Z,92.84
2018-03-12T00:15:56.161Z,91.75
2018-03-12T00:16:56.311Z,92.13
2018-03-12T00:17:56.467Z,92.60
2018-03-12T00:18:56.625Z,92.51
2018-03-12T00:19:56.775Z,92.60
2018-03-12T00:20:56.926Z,92.22
2018-03-12T00:21:57.075Z,92.60
2018-03-12T00:22:57.231Z,92.70
2018-03-12T00:23:57.384Z,92.70
2018-03-12T00:24:57.547Z,92.70
2018-03-12T00:25:57.692Z,92.70
2018-03-12T00:26:57.846Z,92.79
2018-03-12T00:27:57.997Z,92.94
2018-03-12T00:28:58.144Z,92.70
2018-03-12T00:29:58.307Z,92.74
2018-03-12T00:30:58.456Z,92.22
2018-03-12T00:31:58.610Z,92.74
2018-03-12T00:32:58.760Z,92.74
2018-03-12T00:33:58.925Z,92.13
2018-03-12T00:34:59.350Z,93.03
2018-03-12T00:35:59.226Z,92.84
2018-03-12T00:36:59.377Z,92.94
2018-03-12T00:38:59.672Z,92.65
2018-03-12T00:39:59.825Z,92.74
2018-03-12T00:40:59.975Z,92.60
2018-03-12T00:42:00.137Z,92.70
2018-03-12T00:43:00.290Z,92.22
2018-03-12T00:44:00.448Z,92.79
2018-03-12T00:45:00.600Z,92.60
2018-03-12T00:46:00.745Z,92.51
2018-03-12T00:47:00.894Z,93.18
2018-03-12T00:48:01.045Z,92.99
2018-03-12T00:49:01.204Z,92.99
2018-03-12T00:50:01.355Z,93.27
2018-03-12T00:51:01.514Z,93.18
2018-03-12T00:52:01.703Z,92.89
2018-03-12T00:53:01.815Z,92.60
2018-03-12T00:54:01.963Z,93.46
2018-03-12T00:55:02.121Z,93.46
2018-03-12T00:56:02.273Z,93.55
2018-03-12T00:57:02.430Z,94.03
2018-03-12T00:58:02.580Z,93.84
2018-03-12T00:59:02.734Z,94.13
2018-03-12T01:00:02.891Z,94.03
2018-03-12T01:01:03.036Z,94.13
2018-03-12T01:02:03.184Z,93.94
2018-03-12T01:03:03.339Z,93.94
2018-03-12T01:04:03.493Z,93.94
2018-03-12T01:05:03.644Z,93.94
2018-03-12T01:06:03.796Z,94.03
2018-03-12T01:07:03.951Z,95.08
2018-03-12T01:08:04.100Z,94.79
2018-03-12T01:09:04.257Z,94.89
2018-03-12T01:10:04.405Z,94.22
2018-03-12T01:11:04.556Z,94.60
2018-03-12T01:12:04.708Z,94.13
2018-03-12T01:13:04.862Z,94.22
2018-03-12T01:14:05.011Z,94.60
2018-03-12T01:15:05.165Z,94.42
2018-03-12T01:16:05.317Z,94.32
2018-03-12T01:17:05.468Z,94.13
2018-03-12T01:18:05.622Z,94.51
2018-03-12T01:19:05.772Z,93.94
2018-03-12T01:20:05.922Z,94.32
2018-03-12T01:21:06.079Z,94.42
2018-03-12T01:22:06.230Z,94.42
2018-03-12T01:23:06.384Z,94.42
2018-03-12T01:24:06.539Z,94.22
2018-03-12T01:25:06.686Z,94.32
2018-03-12T01:26:06.839Z,94.89
2018-03-12T01:27:06.995Z,94.60
2018-03-12T01:28:07.155Z,94.79
2018-03-12T01:29:07.356Z,94.22
2018-03-12T01:30:07.461Z,93.94
2018-03-12T01:31:07.611Z,93.94
2018-03-12T01:32:07.758Z,93.94
2018-03-12T01:33:07.932Z,94.17
2018-03-12T01:34:08.059Z,93.37
2018-03-12T01:35:08.215Z,93.27
2018-03-12T01:36:08.376Z,93.22
2018-03-12T01:37:08.514Z,93.22
2018-03-12T01:38:08.664Z,92.74
2018-03-12T01:39:08.824Z,92.55
2018-03-12T01:40:08.971Z,92.94
2018-03-12T01:41:09.123Z,92.84
2018-03-12T01:42:09.281Z,93.13
2018-03-12T01:43:09.436Z,93.22
2018-03-12T01:44:09.585Z,92.74
2018-03-12T01:45:09.733Z,92.74
2018-03-12T01:46:09.892Z,92.74
2018-03-12T01:47:10.046Z,92.55
2018-03-12T01:48:10.199Z,92.84
2018-03-12T01:49:10.348Z,93.22
2018-03-12T01:50:10.498Z,93.41
2018-03-12T01:51:10.649Z,93.60
2018-03-12T01:52:10.805Z,93.60
2018-03-12T01:53:10.959Z,93.13
2018-03-12T01:54:11.109Z,93.51
2018-03-12T01:55:11.270Z,93.32
2018-03-12T01:56:11.412Z,93.70
2018-03-12T01:57:11.574Z,93.41
2018-03-12T01:58:11.732Z,93.70
2018-03-12T01:59:11.861Z,93.70
2018-03-12T02:00:12.015Z,93.51
2018-03-12T02:01:12.171Z,93.41
2018-03-12T02:02:12.328Z,93.60
2018-03-12T02:03:12.472Z,93.60
2018-03-12T02:04:12.630Z,93.70
2018-03-12T02:05:12.781Z,93.13
2018-03-12T02:06:12.932Z,92.55
2018-03-12T02:07:13.089Z,92.36
2018-03-12T02:08:13.238Z,91.89
2018-03-12T02:09:13.390Z,92.08
2018-03-12T02:10:13.545Z,92.84
2018-03-12T02:11:13.697Z,92.08
2018-03-12T02:12:13.851Z,92.84
2018-03-12T02:13:14.002Z,92.55
2018-03-12T02:14:14.142Z,92.74
2018-03-12T02:15:14.297Z,92.65
2018-03-12T02:16:14.457Z,92.36
2018-03-12T02:17:14.609Z,93.03
2018-03-12T02:18:14.759Z,92.18
2018-03-12T02:19:14.914Z,92.55
2018-03-12T02:20:15.302Z,91.79
2018-03-12T02:21:15.215Z,92.18
2018-03-12T02:22:15.367Z,92.27
2018-03-12T02:23:15.527Z,92.18
2018-03-12T02:24:15.682Z,93.03
2018-03-12T02:25:15.834Z,91.89
2018-03-12T02:26:15.994Z,91.89
2018-03-12T02:27:16.140Z,91.99
2018-03-12T02:28:16.291Z,92.55
2018-03-12T02:29:16.441Z,92.08
2018-03-12T02:30:16.602Z,92.18
2018-03-12T02:31:16.758Z,92.36
2018-03-12T02:32:16.909Z,91.89
2018-03-12T02:33:17.056Z,91.99
2018-03-12T02:34:17.215Z,92.94
2018-03-12T02:35:17.360Z,91.89
2018-03-12T02:36:17.508Z,92.08
2018-03-12T02:37:17.665Z,92.08
2018-03-12T02:38:17.821Z,92.27
2018-03-12T02:39:17.971Z,92.46
2018-03-12T02:40:18.136Z,92.08
2018-03-12T02:41:18.276Z,92.18
2018-03-12T02:42:18.427Z,91.70
2018-03-12T02:43:18.585Z,92.18
2018-03-12T02:44:18.745Z,92.08
2018-03-12T02:45:18.892Z,91.79
2018-03-12T02:46:19.043Z,92.74
2018-03-12T02:47:19.191Z,92.94
2018-03-12T02:48:19.343Z,93.13
2018-03-12T02:49:19.499Z,93.08
2018-03-12T02:50:19.652Z,93.79
2018-03-12T02:51:19.810Z,94.03
2018-03-12T02:52:19.956Z,94.17
2018-03-12T02:53:20.113Z,93.60
2018-03-12T02:54:20.261Z,93.03
2018-03-12T02:55:20.411Z,92.55
2018-03-12T02:56:20.572Z,92.84
2018-03-12T02:57:20.733Z,92.84
2018-03-12T02:58:20.878Z,92.74
2018-03-12T02:59:21.034Z,92.36
2018-03-12T03:00:21.190Z,92.46
2018-03-12T03:01:21.340Z,92.94
2018-03-12T03:02:21.494Z,92.74
2018-03-12T03:03:21.645Z,92.18
2018-03-12T03:04:21.800Z,92.18
2018-03-12T03:05:21.951Z,92.08
2018-03-12T03:06:22.106Z,92.08
2018-03-12T03:07:22.259Z,92.18
2018-03-12T03:08:22.413Z,92.18
2018-03-12T03:09:22.562Z,92.08
2018-03-12T03:10:22.750Z,91.99
2018-03-12T03:11:22.904Z,92.55
2018-03-12T03:12:23.052Z,92.74
2018-03-12T03:13:23.205Z,92.84
2018-03-12T03:14:23.359Z,93.32
2018-03-12T03:15:23.514Z,93.13
2018-03-12T03:16:23.668Z,93.03
2018-03-12T03:17:23.823Z,93.22
2018-03-12T03:18:23.972Z,92.84
2018-03-12T03:19:24.131Z,92.94
2018-03-12T03:20:24.280Z,92.65
2018-03-12T03:21:24.437Z,92.74
2018-03-12T03:22:24.589Z,92.65
2018-03-12T03:23:24.741Z,92.74
2018-03-12T03:24:24.895Z,92.65
2018-03-12T03:25:25.052Z,93.32
2018-03-12T03:26:25.191Z,92.55
2018-03-12T03:27:25.347Z,92.74
2018-03-12T03:29:25.644Z,92.94
2018-03-12T03:30:25.799Z,92.46
2018-03-12T03:31:25.949Z,92.94
2018-03-12T03:32:26.100Z,92.74
2018-03-12T03:33:26.268Z,92.84
2018-03-12T03:34:26.418Z,92.65
2018-03-12T03:35:26.574Z,92.84
2018-03-12T03:36:26.732Z,92.55
2018-03-12T03:37:26.871Z,92.08
2018-03-12T03:38:27.023Z,92.18
2018-03-12T03:39:27.176Z,92.84
2018-03-12T03:40:27.338Z,92.74
2018-03-12T03:41:27.484Z,92.36
2018-03-12T03:42:27.637Z,92.94
2018-03-12T03:43:27.791Z,92.94
2018-03-12T03:44:27.942Z,92.36
2018-03-12T03:45:28.094Z,92.74
2018-03-12T03:46:28.251Z,92.74
2018-03-12T03:47:28.407Z,92.55
2018-03-12T03:48:28.561Z,92.65
2018-03-12T03:49:28.714Z,92.65
2018-03-12T03:50:28.867Z,92.55
2018-03-12T03:51:29.017Z,92.74
2018-03-12T03:52:29.169Z,92.65
2018-03-12T03:53:29.603Z,93.03
2018-03-12T03:54:29.478Z,92.94
2018-03-12T03:55:29.637Z,92.65
2018-03-12T03:57:29.929Z,93.32
2018-03-12T03:58:30.076Z,93.22
2018-03-12T03:59:30.232Z,92.84
2018-03-12T04:00:30.384Z,92.94
2018-03-12T04:01:30.940Z,93.32
2018-03-12T04:02:30.689Z,92.84
2018-03-12T04:03:30.839Z,93.22
2018-03-12T04:04:30.991Z,93.13
2018-03-12T04:05:31.147Z,93.13
2018-03-12T04:06:31.298Z,93.13
2018-03-12T04:07:31.460Z,93.13
2018-03-12T04:08:31.614Z,93.03
2018-03-12T04:09:31.757Z,93.22
2018-03-12T04:10:31.904Z,93.70
2018-03-12T04:11:32.063Z,93.89
2018-03-12T04:12:32.216Z,93.70
2018-03-12T04:13:32.376Z,93.79
2018-03-12T04:14:32.530Z,93.98
2018-03-12T04:15:32.676Z,93.98
2018-03-12T04:16:32.825Z,94.03
2018-03-12T04:17:32.980Z,94.74
2018-03-12T04:18:33.130Z,94.79
2018-03-12T04:19:33.286Z,94.42
2018-03-12T04:20:33.436Z,94.51
2018-03-12T04:21:33.868Z,94.51
2018-03-12T04:22:33.740Z,94.79
2018-03-12T04:23:33.894Z,95.17
2018-03-12T04:24:34.044Z,94.79
2018-03-12T04:25:34.204Z,94.98
2018-03-12T04:26:34.359Z,94.60
2018-03-12T04:27:34.509Z,94.65
2018-03-12T04:28:34.657Z,94.46
2018-03-12T04:29:34.816Z,94.65
2018-03-12T04:30:34.964Z,94.70
2018-03-12T04:31:35.114Z,94.70
2018-03-12T04:32:35.263Z,94.51
2018-03-12T04:33:35.410Z,94.03
2018-03-12T04:34:35.562Z,93.94
2018-03-12T04:35:35.732Z,94.08
2018-03-12T04:36:36.151Z,93.89
2018-03-12T04:37:36.016Z,93.84
2018-03-12T04:38:36.172Z,94.17
2018-03-12T04:39:36.321Z,93.98
2018-03-12T04:40:36.486Z,94.17
2018-03-12T04:41:36.634Z,94.17
2018-03-12T04:42:36.808Z,94.46
2018-03-12T04:43:36.942Z,94.27
2018-03-12T04:44:37.100Z,94.32
2018-03-12T04:45:37.255Z,93.94
2018-03-12T04:46:37.408Z,94.03
2018-03-12T04:47:37.559Z,94.08
2018-03-12T04:48:37.713Z,93.98
2018-03-12T04:49:37.868Z,93.89
2018-03-12T04:50:38.020Z,93.89
2018-03-12T04:51:38.180Z,94.93
2018-03-12T04:52:38.330Z,94.32
2018-03-12T04:53:38.484Z,94.65
2018-03-12T04:54:38.637Z,94.93
2018-03-12T04:55:38.788Z,94.98
2018-03-12T04:56:38.949Z,95.56
2018-03-12T04:57:39.093Z,95.46
2018-03-12T04:58:39.243Z,95.36
2018-03-12T04:59:39.393Z,95.17
2018-03-12T05:00:39.546Z,95.51
2018-03-12T05:01:39.704Z,95.36
2018-03-12T05:02:39.855Z,95.51
2018-03-12T05:03:40.005Z,95.03
2018-03-12T05:04:40.162Z,95.12
2018-03-12T05:05:40.305Z,95.03
2018-03-12T05:06:40.459Z,94.93
2018-03-12T05:07:40.612Z,95.22
2018-03-12T05:08:40.759Z,95.22
2018-03-12T05:09:40.913Z,95.22
2018-03-12T05:10:41.067Z,95.03
2018-03-12T05:11:41.221Z,95.03
2018-03-12T05:12:41.374Z,95.17
2018-03-12T05:13:41.527Z,95.36
2018-03-12T05:14:41.676Z,95.56
2018-03-12T05:15:41.832Z,95.12
2018-03-12T05:16:41.991Z,95.56
2018-03-12T05:17:42.136Z,95.51
2018-03-12T05:18:42.288Z,95.89
2018-03-12T05:19:42.439Z,96.46
2018-03-12T05:20:42.594Z,95.60
2018-03-12T05:21:42.751Z,96.46
2018-03-12T05:22:42.897Z,95.98
2018-03-12T05:23:43.062Z,96.36
2018-03-12T05:24:43.202Z,95.89
2018-03-12T05:25:43.356Z,95.22
2018-03-12T05:26:43.507Z,95.03
2018-03-12T05:27:43.662Z,95.22
2018-03-12T05:28:43.814Z,94.84
2018-03-12T05:29:43.970Z,94.93
2018-03-12T05:30:44.128Z,94.93
2018-03-12T05:31:44.292Z,94.84
2018-03-12T05:32:44.452Z,95.03
2018-03-12T05:33:44.598Z,94.84
2018-03-12T05:34:44.773Z,95.12
2018-03-12T05:35:44.960Z,94.93
2018-03-12T05:36:45.055Z,95.22
2018-03-12T05:37:45.207Z,94.56
2018-03-12T05:38:45.363Z,94.74
2018-03-12T05:39:45.511Z,95.22
2018-03-12T05:40:45.664Z,95.22
2018-03-12T05:42:45.964Z,95.22
2018-03-12T05:43:46.117Z,95.46
2018-03-12T05:44:46.276Z,96.60
2018-03-12T05:45:46.423Z,96.70
2018-03-12T05:46:46.576Z,97.08
2018-03-12T05:47:46.727Z,97.17
2018-03-12T05:48:46.881Z,97.84
2018-03-12T05:49:47.032Z,97.74
2018-03-12T05:50:47.188Z,97.46
2018-03-12T05:51:47.345Z,97.74
2018-03-12T05:52:47.496Z,97.55
2018-03-12T05:53:47.648Z,97.41
2018-03-12T05:54:47.800Z,97.22
2018-03-12T05:55:47.957Z,96.75
2018-03-12T05:56:48.116Z,96.27
2018-03-12T05:57:48.264Z,95.98
2018-03-12T05:58:48.415Z,95.79
2018-03-12T05:59:48.568Z,95.32
2018-03-12T06:00:48.719Z,95.51
2018-03-12T06:01:48.870Z,94.93
2018-03-12T06:02:49.030Z,95.22
2018-03-12T06:03:49.178Z,94.84
2018-03-12T06:04:49.333Z,94.93
2018-03-12T06:05:49.486Z,94.84
2018-03-12T06:06:49.698Z,94.93
2018-03-12T06:07:49.792Z,94.93
2018-03-12T06:08:49.942Z,94.46
2018-03-12T06:09:50.100Z,94.84
2018-03-12T06:10:50.252Z,94.84
2018-03-12T06:11:50.398Z,94.46
2018-03-12T06:12:50.565Z,94.84
2018-03-12T06:13:50.712Z,94.65
2018-03-12T06:14:50.855Z,94.56
2018-03-12T06:15:51.012Z,94.65
2018-03-12T06:16:51.163Z,94.84
2018-03-12T06:17:51.319Z,95.32
2018-03-12T06:18:51.492Z,95.03
2018-03-12T06:19:51.614Z,94.84
2018-03-12T06:20:51.770Z,94.46
2018-03-12T06:21:51.921Z,93.98
2018-03-12T06:22:52.073Z,94.17
2018-03-12T06:23:52.222Z,93.60
2018-03-12T06:24:52.376Z,94.08
2018-03-12T06:25:52.527Z,94.84
2018-03-12T06:26:52.681Z,94.84
2018-03-12T06:27:52.835Z,95.03
2018-03-12T06:28:52.988Z,95.51
2018-03-12T06:29:53.149Z,95.32
2018-03-12T06:30:53.294Z,95.51
2018-03-12T06:31:53.446Z,96.27
2018-03-12T06:32:53.602Z,96.46
2018-03-12T06:33:53.751Z,95.41
2018-03-12T06:34:53.906Z,95.12
2018-03-12T06:35:54.060Z,95.22
2018-03-12T06:36:54.216Z,95.60
2018-03-12T06:37:54.369Z,95.03
2018-03-12T06:38:54.521Z,95.03
2018-03-12T06:39:54.674Z,94.93
2018-03-12T06:40:54.828Z,95.22
2018-03-12T06:41:54.983Z,94.65
2018-03-12T06:42:55.184Z,94.37
2018-03-12T06:43:55.307Z,93.98
2018-03-12T06:44:55.434Z,94.56
2018-03-12T06:45:55.585Z,94.84
2018-03-12T06:46:55.742Z,94.65
2018-03-12T06:47:55.894Z,94.56
2018-03-12T06:48:56.096Z,94.84
2018-03-12T06:49:56.197Z,95.12
2018-03-12T06:50:56.352Z,94.65
2018-03-12T06:51:56.507Z,94.84
2018-03-12T06:52:56.664Z,94.46
2018-03-12T06:53:56.812Z,95.22
2018-03-12T06:54:56.967Z,95.51
2018-03-12T06:55:57.116Z,95.41
2018-03-12T06:56:57.269Z,95.41
2018-03-12T06:57:57.420Z,95.41
2018-03-12T06:58:57.574Z,96.08
2018-03-12T06:59:57.736Z,96.08
2018-03-12T07:00:57.886Z,95.51
2018-03-12T07:01:58.044Z,95.79
2018-03-12T07:02:58.201Z,95.22
2018-03-12T07:03:58.341Z,95.60
2018-03-12T07:04:58.498Z,95.41
2018-03-12T07:05:58.658Z,95.70
2018-03-12T07:06:58.798Z,95.51
2018-03-12T07:07:58.955Z,95.12
2018-03-12T07:08:59.108Z,95.51
2018-03-12T07:09:59.267Z,96.12
2018-03-12T07:10:59.413Z,97.17
2018-03-12T07:11:59.828Z,97.84
2018-03-12T07:12:59.741Z,98.13
2018-03-12T07:13:59.893Z,98.79
2018-03-12T07:15:00.048Z,98.41
2018-03-12T07:16:00.190Z,98.69
2018-03-12T07:17:00.344Z,98.32
2018-03-12T07:18:00.494Z,97.84
2018-03-12T07:19:00.645Z,97.74
2018-03-12T07:20:00.797Z,97.93
2018-03-12T07:21:00.953Z,97.93
2018-03-12T07:22:01.105Z,97.27
2018-03-12T07:23:01.261Z,97.89
2018-03-12T07:24:01.412Z,97.60
2018-03-12T07:25:01.564Z,97.13
2018-03-12T07:26:01.719Z,97.41
2018-03-12T07:27:01.874Z,97.03
2018-03-12T07:28:02.023Z,97.13
2018-03-12T07:29:02.172Z,97.41
2018-03-12T07:30:02.337Z,97.41
2018-03-12T07:31:02.479Z,97.60
2018-03-12T07:32:02.632Z,97.31
2018-03-12T07:33:02.788Z,97.22
2018-03-12T07:34:02.935Z,96.75
2018-03-12T07:35:03.094Z,96.75
2018-03-12T07:36:03.257Z,96.55
2018-03-12T07:37:03.402Z,96.27
2018-03-12T07:38:03.550Z,97.41
2018-03-12T07:39:03.709Z,96.75
2018-03-12T07:40:03.869Z,97.46
2018-03-12T07:41:04.016Z,97.65
2018-03-12T07:42:04.166Z,97.84
2018-03-12T07:43:04.363Z,98.50
2018-03-12T07:44:04.467Z,98.32
2018-03-12T07:45:04.618Z,98.41
2018-03-12T07:46:04.773Z,98.32
2018-03-12T07:47:04.930Z,98.13
2018-03-12T07:48:05.083Z,98.03
2018-03-12T07:49:05.237Z,97.74
2018-03-12T07:50:05.391Z,98.55
2018-03-12T07:51:05.538Z,98.27
2018-03-12T07:52:05.705Z,98.41
2018-03-12T07:53:05.862Z,97.79
2018-03-12T07:54:06.026Z,98.55
2018-03-12T07:55:06.153Z,98.55
2018-03-12T07:56:06.309Z,97.99
2018-03-12T07:57:06.459Z,97.70
2018-03-12T07:58:06.609Z,98.46
2018-03-12T07:59:06.770Z,97.89
2018-03-12T08:00:06.917Z,97.60
2018-03-12T08:01:07.068Z,97.51
2018-03-12T08:02:07.231Z,97.79
2018-03-12T08:03:07.385Z,97.22
2018-03-12T08:04:07.526Z,97.22
2018-03-12T08:05:07.678Z,97.41
2018-03-12T08:06:07.827Z,97.70
2018-03-12T08:07:07.987Z,97.79
2018-03-12T08:08:08.123Z,97.03
2018-03-12T08:09:08.286Z,97.22
2018-03-12T08:10:08.427Z,97.89
2018-03-12T08:11:08.584Z,97.79
2018-03-12T08:12:08.735Z,97.89
2018-03-12T08:13:08.888Z,97.22
2018-03-12T08:14:09.041Z,97.60
2018-03-12T08:15:09.188Z,97.51
2018-03-12T08:16:09.345Z,98.08
2018-03-12T08:17:09.499Z,97.60
2018-03-12T08:19:09.803Z,98.27
2018-03-12T08:20:09.961Z,98.46
2018-03-12T08:21:10.107Z,97.99
2018-03-12T08:22:10.264Z,98.55
2018-03-12T08:23:10.417Z,97.99
2018-03-12T08:24:10.570Z,99.32
2018-03-12T08:25:10.723Z,98.65
2018-03-12T08:26:10.891Z,99.03
2018-03-12T08:27:11.033Z,98.94
2018-03-12T08:28:11.248Z,98.94
2018-03-12T08:29:11.339Z,99.32
2018-03-12T08:30:11.491Z,99.32
2018-03-12T08:31:11.644Z,98.55
2018-03-12T08:32:11.788Z,98.55
2018-03-12T08:33:11.936Z,99.13
2018-03-12T08:34:12.084Z,99.13
2018-03-12T08:35:12.287Z,98.94
2018-03-12T08:36:12.387Z,98.55
2018-03-12T08:37:12.539Z,98.65
2018-03-12T08:38:12.701Z,99.51
2018-03-12T08:39:12.856Z,98.65
2018-03-12T08:40:12.999Z,98.27
2018-03-12T08:41:13.158Z,98.55
2018-03-12T08:42:13.317Z,98.36
2018-03-12T08:43:13.462Z,98.08
2018-03-12T08:44:13.612Z,97.51
2018-03-12T08:45:13.765Z,97.70
2018-03-12T08:46:13.918Z,97.51
2018-03-12T08:47:14.081Z,97.27
2018-03-12T08:48:14.236Z,97.13
2018-03-12T08:49:14.374Z,96.98
2018-03-12T08:50:14.534Z,97.46
2018-03-12T08:51:14.717Z,96.60
2018-03-12T08:52:14.838Z,96.89
2018-03-12T08:53:14.996Z,96.60
2018-03-12T08:54:15.145Z,96.51
2018-03-12T08:55:15.293Z,97.46
2018-03-12T08:56:15.447Z,96.98
2018-03-12T08:57:15.607Z,96.41
2018-03-12T08:58:15.754Z,96.75
2018-03-12T08:59:15.922Z,96.89
2018-03-12T09:00:16.060Z,97.56
2018-03-12T09:01:16.214Z,97.41
2018-03-12T09:02:16.379Z,97.27
2018-03-12T09:03:16.521Z,97.17
2018-03-12T09:04:16.680Z,97.17
2018-03-12T09:05:16.818Z,97.65
2018-03-12T09:06:16.978Z,97.27
2018-03-12T09:07:17.134Z,97.84
2018-03-12T09:08:17.283Z,97.94
2018-03-12T09:09:17.435Z,97.94
2018-03-12T09:10:17.590Z,97.56
2018-03-12T09:11:17.742Z,98.03
2018-03-12T09:12:17.898Z,98.55
2018-03-12T09:13:18.047Z,98.41
2018-03-12T09:14:18.217Z,98.51
2018-03-12T09:15:18.343Z,98.70
2018-03-12T09:16:18.487Z,98.03
2018-03-12T09:17:18.640Z,97.75
2018-03-12T09:18:18.796Z,98.51
2018-03-12T09:19:18.946Z,97.94
2018-03-12T09:20:19.100Z,98.32
2018-03-12T09:21:19.250Z,98.32
2018-03-12T09:22:19.401Z,98.32
2018-03-12T09:23:19.550Z,98.41
2018-03-12T09:24:19.706Z,98.41
2018-03-12T09:25:19.855Z,98.41
2018-03-12T09:26:20.015Z,98.03
2018-03-12T09:27:20.161Z,97.65
2018-03-12T09:28:20.319Z,97.94
2018-03-12T09:29:20.470Z,97.94
2018-03-12T09:30:20.669Z,97.36
2018-03-12T09:31:20.768Z,97.46
2018-03-12T09:32:20.918Z,97.36
2018-03-12T09:33:21.081Z,97.46
2018-03-12T09:34:21.231Z,96.80
2018-03-12T09:35:21.371Z,96.60
2018-03-12T09:36:21.522Z,96.60
2018-03-12T09:37:21.678Z,97.36
2018-03-12T09:38:21.830Z,97.56
2018-03-12T09:39:21.990Z,96.98
2018-03-12T09:40:22.135Z,97.17
2018-03-12T09:41:22.285Z,97.56
2018-03-12T09:42:22.444Z,97.84
2018-03-12T09:43:22.591Z,97.84
2018-03-12T09:44:22.744Z,97.84
2018-03-12T09:45:22.898Z,97.46
2018-03-12T09:46:23.050Z,97.75
2018-03-12T09:47:23.207Z,97.65
2018-03-12T09:48:23.358Z,97.08
2018-03-12T09:49:23.524Z,97.61
2018-03-12T09:50:23.666Z,97.32
2018-03-12T09:51:23.829Z,97.32
2018-03-12T09:52:23.972Z,96.75
2018-03-12T09:53:24.128Z,96.65
2018-03-12T09:54:24.282Z,96.36
2018-03-12T09:55:24.436Z,96.84
2018-03-12T09:56:24.585Z,96.65
2018-03-12T09:57:24.746Z,96.08
2018-03-12T09:58:24.892Z,96.36
2018-03-12T09:59:25.051Z,96.56
2018-03-12T10:00:25.200Z,96.27
2018-03-12T10:01:25.352Z,96.17
2018-03-12T10:02:25.763Z,96.27
2018-03-12T10:03:25.659Z,95.61
2018-03-12T10:04:25.812Z,96.36
2018-03-12T10:05:25.969Z,95.22
2018-03-12T10:06:26.127Z,96.17
2018-03-12T10:07:26.273Z,97.22
2018-03-12T10:08:26.435Z,96.36
2018-03-12T10:09:26.588Z,96.46
2018-03-12T10:10:26.743Z,96.36
2018-03-12T10:11:26.901Z,96.17
2018-03-12T10:12:27.057Z,96.27
2018-03-12T10:13:27.216Z,96.36
2018-03-12T10:14:27.358Z,96.75
2018-03-12T10:15:27.514Z,97.51
2018-03-12T10:16:27.671Z,97.13
2018-03-12T10:17:27.821Z,96.94
2018-03-12T10:18:28.046Z,97.61
2018-03-12T10:19:28.141Z,96.65
2018-03-12T10:20:28.289Z,97.22
2018-03-12T10:21:28.456Z,95.98
2018-03-12T10:22:28.599Z,96.51
2018-03-12T10:23:28.753Z,96.32
2018-03-12T10:24:28.952Z,96.98
2018-03-12T10:25:29.060Z,96.32
2018-03-12T10:26:29.218Z,97.22
2018-03-12T10:27:29.376Z,96.41
2018-03-12T10:28:29.519Z,95.37
2018-03-12T10:29:30.180Z,95.17
2018-03-12T10:30:30.092Z,94.60
2018-03-12T10:31:30.036Z,94.32
2018-03-12T10:32:30.117Z,94.79
2018-03-12T10:33:30.513Z,94.51
2018-03-12T10:34:30.431Z,94.27
2018-03-12T10:35:30.582Z,93.70
2018-03-12T10:36:30.738Z,93.31
2018-03-12T10:37:30.895Z,92.74
2018-03-12T10:38:31.052Z,92.65
2018-03-12T10:39:31.199Z,93.22
2018-03-12T10:40:31.353Z,92.50
2018-03-12T10:41:31.512Z,91.16
2018-03-12T10:42:31.708Z,91.16
2018-03-12T10:43:31.849Z,90.40
2018-03-12T10:44:32.007Z,90.40
2018-03-12T10:45:32.161Z,91.07
2018-03-12T10:46:32.315Z,89.45
2018-03-12T10:47:32.466Z,89.68
2018-03-12T10:48:32.623Z,88.44
2018-03-12T10:49:32.776Z,88.73
2018-03-12T10:50:32.933Z,87.96
2018-03-12T10:51:33.134Z,87.68
2018-03-12T10:52:33.240Z,87.96
2018-03-12T10:53:33.693Z,87.29
2018-03-12T10:54:33.510Z,87.96
2018-03-12T10:55:33.664Z,86.91
2018-03-12T10:56:33.818Z,86.72
2018-03-12T10:57:33.969Z,87.01
2018-03-12T10:58:34.120Z,87.48
2018-03-12T10:59:34.316Z,87.01
2018-03-12T11:00:34.433Z,87.96
2018-03-12T11:01:34.590Z,87.15
2018-03-12T11:02:34.745Z,86.29
2018-03-12T11:03:34.903Z,86.29
2018-03-12T11:04:35.064Z,86.00
2018-03-12T11:05:35.218Z,85.42
2018-03-12T11:06:35.376Z,85.62
2018-03-12T11:07:35.534Z,85.96
2018-03-12T11:08:35.692Z,84.66
2018-03-12T11:09:35.837Z,84.66
2018-03-12T11:11:36.145Z,85.90
2018-03-12T11:12:36.300Z,83.75
2018-03-12T11:13:36.454Z,83.80
2018-03-12T11:14:36.613Z,84.19
2018-03-12T11:15:36.764Z,83.99
2018-03-12T11:16:36.925Z,84.38
2018-03-12T11:17:37.070Z,83.23
2018-03-12T11:18:37.230Z,83.61
2018-03-12T11:19:37.387Z,83.51
2018-03-12T11:20:37.547Z,84.09
2018-03-12T11:21:37.697Z,84.85
2018-03-12T11:22:37.852Z,84.56
2018-03-12T11:23:38.001Z,84.19
2018-03-12T11:24:38.160Z,84.09
2018-03-12T11:25:38.314Z,84.66
2018-03-12T11:26:38.472Z,84.09
2018-03-12T11:27:38.627Z,83.80
2018-03-12T11:28:38.779Z,83.70
2018-03-12T11:29:38.931Z,84.23
2018-03-12T11:30:39.085Z,83.70
2018-03-12T11:31:39.249Z,84.62
2018-03-12T11:32:39.396Z,84.43
2018-03-12T11:33:39.545Z,84.81
2018-03-12T11:34:39.701Z,84.28
2018-03-12T11:35:39.856Z,84.66
2018-03-12T11:36:40.007Z,84.56
2018-03-12T11:37:40.164Z,83.99
2018-03-12T11:38:40.323Z,84.28
2018-03-12T11:39:40.536Z,84.19
2018-03-12T11:40:40.634Z,84.76
2018-03-12T11:41:40.795Z,84.76
2018-03-12T11:42:40.950Z,84.85
2018-03-12T11:43:41.098Z,85.05
2018-03-12T11:44:41.250Z,84.85
2018-03-12T11:45:41.400Z,84.95
2018-03-12T11:46:41.553Z,84.66
2018-03-12T11:47:41.754Z,85.33
2018-03-12T11:48:41.865Z,85.42
2018-03-12T11:49:42.024Z,85.81
2018-03-12T11:50:42.185Z,85.29
2018-03-12T11:51:42.338Z,86.63
2018-03-12T11:52:42.489Z,86.53
2018-03-12T11:53:42.646Z,87.20
2018-03-12T11:54:42.806Z,87.10
2018-03-12T11:55:42.962Z,87.58
2018-03-12T11:56:43.111Z,86.72
2018-03-12T11:57:43.509Z,86.91
2018-03-12T11:58:43.425Z,86.43
2018-03-12T11:59:43.589Z,87.10
2018-03-12T12:01:43.878Z,85.77
2018-03-12T12:02:44.029Z,85.86
2018-03-12T12:03:44.194Z,85.38
2018-03-12T12:04:44.346Z,85.58
2018-03-12T12:05:44.500Z,86.24
2018-03-12T12:06:44.659Z,86.19
2018-03-12T12:07:44.836Z,84.42
2018-03-12T12:08:44.966Z,82.03
2018-03-12T12:09:45.134Z,80.59
2018-03-12T12:10:45.275Z,81.78
2018-03-12T12:11:45.449Z,81.16
2018-03-12T12:12:45.600Z,80.50
2018-03-12T12:13:45.778Z,80.16
2018-03-12T12:14:45.914Z,80.50
2018-03-12T12:15:46.068Z,80.82
2018-03-12T12:16:46.228Z,81.02
2018-03-12T12:17:46.378Z,80.63
2018-03-12T12:18:46.535Z,80.88
2018-03-12T12:19:46.692Z,80.82
2018-03-12T12:20:46.852Z,80.40
2018-03-12T12:21:47.005Z,80.59
2018-03-12T12:22:47.172Z,80.79
2018-03-12T12:23:47.312Z,81.93
2018-03-12T12:24:47.477Z,83.56
2018-03-12T12:26:47.786Z,83.42
2018-03-12T12:27:47.938Z,83.80
2018-03-12T12:28:48.545Z,83.56
2018-03-12T12:29:48.244Z,84.28
2018-03-12T12:30:48.404Z,83.42
2018-03-12T12:31:48.558Z,82.94
2018-03-12T12:32:48.708Z,83.33
2018-03-12T12:33:48.867Z,83.33
2018-03-12T12:34:49.026Z,82.84
2018-03-12T12:35:49.182Z,83.51
2018-03-12T12:36:49.338Z,84.28
2018-03-12T12:37:49.496Z,83.80
2018-03-12T12:38:49.648Z,83.42
2018-03-12T12:39:49.807Z,83.42
2018-03-12T12:40:49.966Z,83.70
2018-03-12T12:41:50.117Z,83.70
2018-03-12T12:42:50.270Z,83.80
2018-03-12T12:43:50.424Z,83.23
2018-03-12T12:44:50.621Z,83.94
2018-03-12T12:45:50.722Z,82.94
2018-03-12T12:46:50.885Z,82.41
2018-03-12T12:47:51.039Z,82.70
2018-03-12T12:48:51.190Z,83.46
2018-03-12T12:49:51.365Z,82.12
2018-03-12T12:50:51.502Z,81.74
2018-03-12T12:51:51.659Z,81.93
2018-03-12T12:52:51.813Z,82.12
2018-03-12T12:53:51.973Z,81.36
2018-03-12T12:54:52.123Z,81.93
2018-03-12T12:55:52.282Z,82.03
2018-03-12T12:56:52.430Z,81.36
2018-03-12T12:57:52.590Z,81.30
2018-03-12T12:58:52.754Z,80.59
2018-03-12T12:59:52.897Z,80.92
2018-03-12T13:00:53.109Z,80.82
2018-03-12T13:01:53.209Z,81.16
2018-03-12T13:02:53.364Z,81.02